Time,TemperatureF,DewpointF,PressureIn,WindDirection,WindDirectionDegrees,WindSpeedMPH,WindSpeedGustMPH,Humidity,HourlyPrecipIn,Conditions,Clouds,dailyrainin,SoftwareType,DateUTC
2013-01-06 05:40:00,68.0,48.9,26.99,SE,133,5.8,8.7,38,0.00,,---,0.00,VWS V14.01,2013-01-06 11:40:00,
2013-01-06 05:41:00,68.0,48.9,26.99,SE,124,10.5,11.0,38,0.00,,---,0.00,VWS V14.01,2013-01-06 11:41:00,
2013-01-06 05:46:00,67.5,48.9,26.99,South,170,7.6,8.3,40,0.00,,---,0.00,VWS V14.01,2013-01-06 11:46:00,
2013-01-06 05:51:00,67.1,48.9,26.99,ESE,123,7.6,7.6,41,0.00,,---,0.00,VWS V14.01,2013-01-06 11:51:00,
2013-01-06 05:56:00,66.7,48.9,26.99,ESE,111,7.6,10.1,42,0.00,,---,0.00,VWS V14.01,2013-01-06 11:56:00,
2013-01-06 06:00:00,66.6,48.9,26.99,SSE,156,6.3,6.3,42,0.00,,---,0.00,VWS V14.01,2013-01-06 12:00:00,
2013-01-06 06:05:00,66.6,48.9,26.99,ESE,110,3.6,9.6,43,0.00,,---,0.00,VWS V14.01,2013-01-06 12:05:00,
2013-01-06 06:10:00,66.6,48.9,26.99,NNE,20,11.9,15.4,43,0.00,,---,0.00,VWS V14.01,2013-01-06 12:10:00,
2013-01-06 06:15:00,66.4,48.9,26.99,NNW,330,7.2,8.7,43,0.00,,---,0.00,VWS V14.01,2013-01-06 12:15:00,
2013-01-06 06:20:00,66.2,48.9,26.99,SE,141,3.6,5.4,44,0.00,,---,0.00,VWS V14.01,2013-01-06 12:20:00,
2013-01-06 06:25:00,66.0,48.9,26.99,SSE,165,2.7,4.9,44,0.00,,---,0.00,VWS V14.01,2013-01-06 12:25:00,
2013-01-06 06:30:00,66.0,48.9,26.99,SSW,193,3.1,4.0,44,0.00,,---,0.00,VWS V14.01,2013-01-06 12:30:00,
2013-01-06 06:35:00,66.4,48.9,26.99,ESE,104,3.6,4.0,44,0.00,,---,0.00,VWS V14.01,2013-01-06 12:35:00,
2013-01-06 06:40:00,66.7,48.9,26.99,South,184,7.6,7.6,44,0.00,,---,0.00,VWS V14.01,2013-01-06 12:40:00,
2013-01-06 06:45:00,66.9,48.9,26.99,East,92,4.0,7.2,44,0.00,,---,0.00,VWS V14.01,2013-01-06 12:45:00,
2013-01-06 06:50:00,67.1,48.9,26.99,East,88,6.3,6.7,44,0.00,,---,0.00,VWS V14.01,2013-01-06 12:50:00,
2013-01-06 06:55:00,67.1,48.9,27.02,SE,140,4.9,4.9,44,0.00,,---,0.00,VWS V14.01,2013-01-06 12:55:00,
2013-01-06 07:00:00,67.1,48.9,27.02,ESE,119,5.8,8.3,44,0.00,,---,0.00,VWS V14.01,2013-01-06 13:00:00,
2013-01-06 07:05:00,67.1,48.9,27.02,NE,41,4.9,4.9,44,0.00,,---,0.00,VWS V14.01,2013-01-06 13:05:00,
2013-01-06 07:10:00,68.4,48.9,27.02,South,184,8.7,11.0,35,0.00,,---,0.00,VWS V14.01,2013-01-06 13:10:00,
2013-01-06 07:15:00,68.7,48.9,27.02,ESE,116,3.6,6.3,36,0.00,,---,0.00,VWS V14.01,2013-01-06 13:15:00,
2013-01-06 07:20:00,68.7,48.9,27.02,East,95,5.8,7.2,36,0.00,,---,0.00,VWS V14.01,2013-01-06 13:20:00,
2013-01-06 07:25:00,69.1,48.9,27.02,South,190,10.1,10.1,37,0.00,,---,0.00,VWS V14.01,2013-01-06 13:25:00,
2013-01-06 07:30:00,69.1,48.9,27.02,ENE,71,15.4,15.4,39,0.00,,---,0.00,VWS V14.01,2013-01-06 13:30:00,
2013-01-06 07:35:00,69.1,48.9,27.02,ESE,112,8.7,8.7,39,0.00,,---,0.00,VWS V14.01,2013-01-06 13:35:00,
2013-01-06 07:40:00,69.1,48.9,27.02,ESE,113,8.1,8.7,39,0.00,,---,0.00,VWS V14.01,2013-01-06 13:40:00,
2013-01-06 07:45:00,69.1,48.9,27.02,ESE,117,6.3,11.0,39,0.00,,---,0.00,VWS V14.01,2013-01-06 13:45:00,
2013-01-06 07:50:00,69.1,48.9,27.02,ESE,123,4.9,4.9,39,0.00,,---,0.00,VWS V14.01,2013-01-06 13:50:00,
2013-01-06 07:55:00,69.1,48.9,27.02,East,100,5.8,8.1,39,0.00,,---,0.00,VWS V14.01,2013-01-06 13:55:00,
2013-01-06 08:00:00,69.1,48.9,27.02,SSE,163,6.3,6.3,39,0.00,,---,0.00,VWS V14.01,2013-01-06 14:00:00,
2013-01-06 08:05:00,69.1,48.9,27.02,East,89,5.8,5.8,39,0.00,,---,0.00,VWS V14.01,2013-01-06 14:05:00,
2013-01-06 08:10:00,69.1,48.9,27.05,East,85,8.3,10.5,39,0.00,,---,0.00,VWS V14.01,2013-01-06 14:10:00,
2013-01-06 08:15:00,69.1,48.9,27.05,SE,136,8.7,10.5,39,0.00,,---,0.00,VWS V14.01,2013-01-06 14:15:00,
2013-01-06 08:20:00,69.1,48.9,27.05,East,101,5.4,13.2,39,0.00,,---,0.00,VWS V14.01,2013-01-06 14:20:00,
2013-01-06 08:25:00,69.1,48.9,27.02,ESE,108,4.0,8.7,39,0.00,,---,0.00,VWS V14.01,2013-01-06 14:25:00,
2013-01-06 08:30:00,69.1,48.9,27.02,ENE,76,4.0,4.9,39,0.00,,---,0.00,VWS V14.01,2013-01-06 14:30:00,
2013-01-06 08:35:00,69.1,48.9,27.02,ESE,112,4.9,4.9,39,0.00,,---,0.00,VWS V14.01,2013-01-06 14:35:00,
2013-01-06 08:40:00,69.1,48.9,27.05,ESE,119,8.7,8.7,39,0.00,,---,0.00,VWS V14.01,2013-01-06 14:40:00,
2013-01-06 08:45:00,69.1,48.9,27.05,SE,125,10.5,10.5,39,0.00,,---,0.00,VWS V14.01,2013-01-06 14:45:00,
2013-01-06 08:50:00,69.1,48.9,27.05,SE,137,5.8,8.7,39,0.00,,---,0.00,VWS V14.01,2013-01-06 14:50:00,
2013-01-06 08:55:00,71.4,48.9,27.05,ESE,117,4.0,4.0,40,0.00,,---,0.00,VWS V14.01,2013-01-06 14:55:00,
2013-01-06 09:00:00,71.4,48.9,27.05,East,97,6.3,6.3,40,0.00,,---,0.00,VWS V14.01,2013-01-06 15:00:00,
2013-01-06 09:05:00,71.4,48.9,27.05,SSE,147,3.1,5.4,40,0.00,,---,0.00,VWS V14.01,2013-01-06 15:05:00,
2013-01-06 09:10:00,71.4,48.9,27.05,SSE,166,5.4,5.4,40,0.00,,---,0.00,VWS V14.01,2013-01-06 15:10:00,
2013-01-06 09:15:00,71.4,48.9,27.05,ESE,120,4.0,7.6,40,0.00,,---,0.00,VWS V14.01,2013-01-06 15:15:00,
2013-01-06 09:20:00,71.4,48.9,27.05,East,93,11.0,16.8,40,0.00,,---,0.00,VWS V14.01,2013-01-06 15:20:00,
2013-01-06 09:25:00,71.4,48.9,27.05,ESE,123,3.1,3.1,40,0.00,,---,0.00,VWS V14.01,2013-01-06 15:25:00,
2013-01-06 09:30:00,72.1,48.9,27.05,NNE,33,15.0,15.0,42,0.00,,---,0.00,VWS V14.01,2013-01-06 15:30:00,
2013-01-06 09:35:00,72.1,48.9,27.05,South,182,8.7,8.7,42,0.00,,---,0.00,VWS V14.01,2013-01-06 15:35:00,
2013-01-06 09:40:00,72.1,48.9,27.05,East,82,13.2,13.2,42,0.00,,---,0.00,VWS V14.01,2013-01-06 15:40:00,
2013-01-06 09:45:00,72.3,48.9,27.05,ENE,66,8.1,11.0,42,0.00,,---,0.00,VWS V14.01,2013-01-06 15:45:00,
2013-01-06 09:50:00,72.1,48.9,27.05,ESE,102,3.6,8.7,42,0.00,,---,0.00,VWS V14.01,2013-01-06 15:50:00,
2013-01-06 09:55:00,72.1,48.9,27.05,SE,132,8.1,12.3,42,0.00,,---,0.00,VWS V14.01,2013-01-06 15:55:00,
2013-01-06 10:00:00,72.1,48.9,27.05,East,92,12.8,19.2,42,0.00,,---,0.00,VWS V14.01,2013-01-06 16:00:00,
2013-01-06 10:05:00,72.1,48.9,27.05,NE,50,10.1,12.8,42,0.00,,---,0.00,VWS V14.01,2013-01-06 16:05:00,
2013-01-06 10:10:00,72.1,48.9,27.05,East,98,8.3,10.5,42,0.00,,---,0.00,VWS V14.01,2013-01-06 16:10:00,
2013-01-06 10:15:00,72.1,48.9,27.05,SE,127,5.8,11.0,42,0.00,,---,0.00,VWS V14.01,2013-01-06 16:15:00,
2013-01-06 10:20:00,72.3,48.6,27.05,East,95,11.0,13.2,43,0.00,,---,0.00,VWS V14.01,2013-01-06 16:20:00,
2013-01-06 10:25:00,72.3,48.6,27.05,East,99,10.1,17.9,43,0.00,,---,0.00,VWS V14.01,2013-01-06 16:25:00,
2013-01-06 10:30:00,72.3,48.6,27.05,ESE,103,7.6,10.1,43,0.00,,---,0.00,VWS V14.01,2013-01-06 16:30:00,
2013-01-06 10:35:00,72.3,48.6,27.05,SE,139,4.5,8.1,43,0.00,,---,0.00,VWS V14.01,2013-01-06 16:35:00,
2013-01-06 10:40:00,72.3,48.6,27.05,SSE,149,2.7,15.0,43,0.00,,---,0.00,VWS V14.01,2013-01-06 16:40:00,
2013-01-06 10:45:00,72.3,48.6,27.05,East,90,14.1,14.1,43,0.00,,---,0.00,VWS V14.01,2013-01-06 16:45:00,
2013-01-06 10:50:00,72.3,48.6,27.05,ESE,114,10.5,14.1,43,0.00,,---,0.00,VWS V14.01,2013-01-06 16:50:00,
2013-01-06 10:55:00,72.3,48.6,27.02,East,100,10.5,10.5,43,0.00,,---,0.00,VWS V14.01,2013-01-06 16:55:00,
2013-01-06 11:00:00,72.3,48.6,27.02,ESE,113,7.2,7.2,43,0.00,,---,0.00,VWS V14.01,2013-01-06 17:00:00,
2013-01-06 11:05:00,72.3,48.6,27.02,East,87,10.5,10.5,43,0.00,,---,0.00,VWS V14.01,2013-01-06 17:05:00,
2013-01-06 11:10:00,72.3,48.6,27.02,NE,50,5.4,8.3,43,0.00,,---,0.00,VWS V14.01,2013-01-06 17:10:00,
2013-01-06 11:15:00,72.3,48.6,27.02,ESE,109,8.7,14.5,43,0.00,,---,0.00,VWS V14.01,2013-01-06 17:15:00,
2013-01-06 11:20:00,72.3,48.6,27.02,East,87,11.0,11.0,43,0.00,,---,0.00,VWS V14.01,2013-01-06 17:20:00,
2013-01-06 11:25:00,72.3,48.6,27.02,NE,47,6.7,8.7,43,0.00,,---,0.00,VWS V14.01,2013-01-06 17:25:00,
2013-01-06 11:30:00,72.3,48.6,27.02,East,85,5.8,12.8,43,0.00,,---,0.00,VWS V14.01,2013-01-06 17:30:00,
2013-01-06 11:35:00,72.3,48.6,27.02,ENE,73,5.4,8.7,43,0.00,,---,0.00,VWS V14.01,2013-01-06 17:35:00,
2013-01-06 11:40:00,72.3,48.6,27.02,ESE,115,5.8,12.8,43,0.00,,---,0.00,VWS V14.01,2013-01-06 17:40:00,
2013-01-06 11:45:00,74.3,48.4,27.02,SSE,157,3.6,13.6,40,0.00,,---,0.00,VWS V14.01,2013-01-06 17:45:00,
2013-01-06 11:50:00,74.3,48.4,27.02,East,86,10.5,10.5,40,0.00,,---,0.00,VWS V14.01,2013-01-06 17:50:00,
2013-01-06 11:55:00,74.3,48.4,27.02,East,81,4.0,13.2,40,0.00,,---,0.00,VWS V14.01,2013-01-06 17:55:00,
2013-01-06 12:00:00,74.3,48.4,27.02,ESE,112,6.3,8.1,40,0.00,,---,0.00,VWS V14.01,2013-01-06 18:00:00,
2013-01-06 12:05:00,74.3,48.4,27.02,South,171,6.3,14.1,40,0.00,,---,0.00,VWS V14.01,2013-01-06 18:05:00,
2013-01-06 12:10:00,74.3,48.4,27.02,SE,140,6.3,7.6,40,0.00,,---,0.00,VWS V14.01,2013-01-06 18:10:00,
2013-01-06 12:15:00,74.5,49.3,27.02,SE,125,5.4,10.1,41,0.00,,---,0.00,VWS V14.01,2013-01-06 18:15:00,
2013-01-06 12:20:00,74.5,49.3,27.02,ENE,75,6.3,12.3,41,0.00,,---,0.00,VWS V14.01,2013-01-06 18:20:00,
2013-01-06 12:25:00,74.5,49.3,27.02,SSE,151,3.6,12.8,41,0.00,,---,0.00,VWS V14.01,2013-01-06 18:25:00,
2013-01-06 12:30:00,74.5,49.3,27.02,SE,141,5.8,8.1,41,0.00,,---,0.00,VWS V14.01,2013-01-06 18:30:00,
2013-01-06 12:35:00,74.5,48.6,27.02,East,98,8.1,8.1,40,0.00,,---,0.00,VWS V14.01,2013-01-06 18:35:00,
2013-01-06 12:40:00,74.5,48.6,27.02,SE,127,11.0,13.2,40,0.00,,---,0.00,VWS V14.01,2013-01-06 18:40:00,
2013-01-06 12:45:00,74.5,48.6,27.02,South,179,6.3,8.1,40,0.00,,---,0.00,VWS V14.01,2013-01-06 18:45:00,
2013-01-06 12:50:00,74.5,48.6,27.02,ESE,104,8.3,11.9,40,0.00,,---,0.00,VWS V14.01,2013-01-06 18:50:00,
2013-01-06 12:55:00,74.5,48.6,26.99,SE,145,5.4,8.7,40,0.00,,---,0.00,VWS V14.01,2013-01-06 18:55:00,
2013-01-06 13:00:00,74.5,48.6,26.99,ESE,114,11.4,11.4,40,0.00,,---,0.00,VWS V14.01,2013-01-06 19:00:00,
2013-01-06 13:05:00,74.5,48.6,26.99,ESE,105,11.0,15.0,40,0.00,,---,0.00,VWS V14.01,2013-01-06 19:05:00,
2013-01-06 13:10:00,74.3,49.1,26.96,ENE,72,10.1,11.0,41,0.00,,---,0.00,VWS V14.01,2013-01-06 19:10:00,
2013-01-06 13:15:00,74.3,49.1,26.96,ENE,75,6.3,8.3,41,0.00,,---,0.00,VWS V14.01,2013-01-06 19:15:00,
2013-01-06 13:20:00,74.3,49.1,26.96,ENE,77,5.4,7.6,41,0.00,,---,0.00,VWS V14.01,2013-01-06 19:20:00,
2013-01-06 13:25:00,74.3,49.1,26.96,ESE,116,13.2,13.2,41,0.00,,---,0.00,VWS V14.01,2013-01-06 19:25:00,
2013-01-06 13:30:00,74.5,48.6,26.96,ESE,118,6.3,8.7,40,0.00,,---,0.00,VWS V14.01,2013-01-06 19:30:00,
2013-01-06 13:35:00,74.5,48.6,26.96,ESE,118,8.1,15.4,40,0.00,,---,0.00,VWS V14.01,2013-01-06 19:35:00,
2013-01-06 13:40:00,74.5,48.6,26.99,South,172,5.8,6.3,40,0.00,,---,0.00,VWS V14.01,2013-01-06 19:40:00,
2013-01-06 13:45:00,74.1,48.3,26.99,East,93,10.1,10.5,40,0.00,,---,0.00,VWS V14.01,2013-01-06 19:45:00,
2013-01-06 13:51:00,73.9,48.8,26.99,ESE,109,13.6,13.6,41,0.00,,---,0.00,VWS V14.01,2013-01-06 19:51:00,
2013-01-06 13:56:00,73.9,48.8,26.99,SE,127,8.3,14.5,41,0.00,,---,0.00,VWS V14.01,2013-01-06 19:56:00,
2013-01-06 14:02:00,73.9,48.8,26.99,East,99,5.4,11.0,41,0.00,,---,0.00,VWS V14.01,2013-01-06 20:02:00,
2013-01-06 14:07:00,73.9,48.8,26.99,East,86,15.9,15.9,41,0.00,,---,0.00,VWS V14.01,2013-01-06 20:07:00,
2013-01-06 14:11:00,73.9,48.8,26.96,SE,146,3.1,5.8,41,0.00,,---,0.00,VWS V14.01,2013-01-06 20:11:00,
2013-01-06 14:13:00,73.9,48.8,26.96,SE,132,5.8,11.0,41,0.00,,---,0.00,VWS V14.01,2013-01-06 20:13:00,
2013-01-06 14:18:00,73.9,48.8,26.96,SE,139,5.4,17.0,41,0.00,,---,0.00,VWS V14.01,2013-01-06 20:18:00,
2013-01-06 14:23:00,73.9,48.8,26.96,East,84,6.3,8.7,41,0.00,,---,0.00,VWS V14.01,2013-01-06 20:23:00,
2013-01-06 14:28:00,73.9,48.8,26.96,SSE,162,10.5,10.5,41,0.00,,---,0.00,VWS V14.01,2013-01-06 20:28:00,
2013-01-06 14:33:00,73.2,48.8,26.96,ESE,117,4.9,8.1,42,0.00,,---,0.00,VWS V14.01,2013-01-06 20:33:00,
2013-01-06 14:38:00,73.2,48.8,26.96,East,84,7.2,10.5,42,0.00,,---,0.00,VWS V14.01,2013-01-06 20:38:00,
2013-01-06 14:43:00,73.2,48.8,26.96,North,9,4.0,11.0,42,0.00,,---,0.00,VWS V14.01,2013-01-06 20:43:00,
2013-01-06 14:48:00,73.2,48.8,26.96,East,88,5.4,10.1,42,0.00,,---,0.00,VWS V14.01,2013-01-06 20:48:00,
2013-01-06 14:53:00,72.9,48.5,26.96,SE,130,7.6,8.1,42,0.00,,---,0.00,VWS V14.01,2013-01-06 20:53:00,
2013-01-06 14:58:00,72.9,48.5,26.96,ESE,115,10.1,10.1,42,0.00,,---,0.00,VWS V14.01,2013-01-06 20:58:00,
2013-01-06 15:01:00,72.9,48.5,26.96,SSE,157,3.1,4.9,42,0.00,,---,0.00,VWS V14.01,2013-01-06 21:01:00,
2013-01-06 15:06:00,72.9,48.5,26.96,ENE,65,4.0,4.0,42,0.00,,---,0.00,VWS V14.01,2013-01-06 21:06:00,
2013-01-06 15:11:00,72.9,49.1,26.96,SE,127,5.4,8.7,43,0.00,,---,0.00,VWS V14.01,2013-01-06 21:11:00,
2013-01-06 15:16:00,72.9,49.1,26.96,ESE,118,7.6,10.1,43,0.00,,---,0.00,VWS V14.01,2013-01-06 21:16:00,
2013-01-06 15:21:00,72.9,49.1,26.96,East,97,5.8,7.6,43,0.00,,---,0.00,VWS V14.01,2013-01-06 21:21:00,
2013-01-06 15:26:00,72.3,48.6,26.96,NE,56,8.7,8.7,43,0.00,,---,0.00,VWS V14.01,2013-01-06 21:26:00,
2013-01-06 15:31:00,72.3,48.6,26.96,SE,130,5.8,6.3,43,0.00,,---,0.00,VWS V14.01,2013-01-06 21:31:00,
2013-01-06 15:36:00,72.3,49.2,26.96,East,92,5.4,7.6,44,0.00,,---,0.00,VWS V14.01,2013-01-06 21:36:00,
2013-01-06 15:41:00,72.1,49.0,26.96,SE,135,8.7,12.8,44,0.00,,---,0.00,VWS V14.01,2013-01-06 21:41:00,
2013-01-06 15:46:00,72.1,49.0,26.96,East,91,8.7,8.7,44,0.00,,---,0.00,VWS V14.01,2013-01-06 21:46:00,
2013-01-06 15:51:00,72.1,49.0,26.96,East,92,5.4,5.4,44,0.00,,---,0.00,VWS V14.01,2013-01-06 21:51:00,
2013-01-06 15:56:00,72.1,49.0,26.96,East,83,8.3,8.3,44,0.00,,---,0.00,VWS V14.01,2013-01-06 21:56:00,
2013-01-06 16:01:00,72.1,49.0,26.96,SW,225,8.1,8.1,44,0.00,,---,0.00,VWS V14.01,2013-01-06 22:01:00,
2013-01-06 16:06:00,72.1,49.0,26.96,SW,225,8.1,8.1,44,0.00,,---,0.00,VWS V14.01,2013-01-06 22:06:00,
2013-01-06 16:11:00,72.1,49.0,26.99,ENE,77,3.6,8.1,44,0.00,,---,0.00,VWS V14.01,2013-01-06 22:11:00,
2013-01-06 16:16:00,72.1,49.0,26.99,NE,56,8.3,8.3,44,0.00,,---,0.00,VWS V14.01,2013-01-06 22:16:00,
2013-01-06 16:21:00,72.1,49.0,26.99,ESE,111,6.3,6.3,44,0.00,,---,0.00,VWS V14.01,2013-01-06 22:21:00,
2013-01-06 16:26:00,72.1,49.0,26.96,SSE,155,4.0,4.5,44,0.00,,---,0.00,VWS V14.01,2013-01-06 22:26:00,
2013-01-06 16:31:00,72.1,49.0,26.96,ENE,68,4.0,4.0,44,0.00,,---,0.00,VWS V14.01,2013-01-06 22:31:00,
2013-01-06 16:36:00,72.1,49.0,26.96,ESE,104,5.4,5.4,44,0.00,,---,0.00,VWS V14.01,2013-01-06 22:36:00,
2013-01-06 16:41:00,72.1,49.0,26.96,ESE,121,4.0,4.0,44,0.00,,---,0.00,VWS V14.01,2013-01-06 22:41:00,
2013-01-06 16:46:00,72.1,49.0,26.96,East,98,6.3,6.3,44,0.00,,---,0.00,VWS V14.01,2013-01-06 22:46:00,
2013-01-06 16:51:00,72.1,49.0,26.96,SSE,147,5.8,6.3,44,0.00,,---,0.00,VWS V14.01,2013-01-06 22:51:00,
2013-01-06 16:56:00,70.2,50.7,26.96,SE,127,5.8,5.8,50,0.00,,---,0.00,VWS V14.01,2013-01-06 22:56:00,
2013-01-06 17:01:00,70.0,51.0,26.96,ESE,112,5.4,7.2,51,0.00,,---,0.00,VWS V14.01,2013-01-06 23:01:00,
2013-01-06 17:06:00,70.0,51.0,26.96,East,97,8.7,8.7,51,0.00,,---,0.00,VWS V14.01,2013-01-06 23:06:00,
2013-01-06 17:11:00,70.0,51.0,26.96,ESE,121,6.3,6.3,51,0.00,,---,0.00,VWS V14.01,2013-01-06 23:11:00,
2013-01-06 17:16:00,70.0,51.0,26.96,ESE,114,3.1,3.1,51,0.00,,---,0.00,VWS V14.01,2013-01-06 23:16:00,
2013-01-06 17:21:00,70.0,51.0,26.96,SE,126,5.8,5.8,51,0.00,,---,0.00,VWS V14.01,2013-01-06 23:21:00,
2013-01-06 17:26:00,70.0,51.0,26.99,SE,135,7.2,7.2,51,0.00,,---,0.00,VWS V14.01,2013-01-06 23:26:00,
2013-01-06 17:31:00,70.0,51.0,26.99,SE,135,7.2,7.2,51,0.00,,---,0.00,VWS V14.01,2013-01-06 23:31:00,
2013-01-06 17:36:00,70.0,51.0,26.99,SE,135,7.2,7.2,51,0.00,,---,0.00,VWS V14.01,2013-01-06 23:36:00,
2013-01-06 17:41:00,70.0,51.0,26.99,SE,135,7.2,7.2,51,0.00,,---,0.00,VWS V14.01,2013-01-06 23:41:00,
2013-01-06 17:46:00,70.0,51.0,26.99,SE,135,7.2,7.2,51,0.00,,---,0.00,VWS V14.01,2013-01-06 23:46:00,
2013-01-06 17:51:00,70.0,51.0,26.99,ESE,103,10.5,10.5,51,0.00,,---,0.00,VWS V14.01,2013-01-06 23:51:00,
2013-01-06 17:56:00,70.0,51.0,26.99,SE,141,5.4,6.3,51,0.00,,---,0.00,VWS V14.01,2013-01-06 23:56:00,
2013-01-06 18:01:00,70.0,51.0,26.99,SE,137,10.1,10.1,51,0.00,,---,0.00,VWS V14.01,2013-01-07 00:01:00,
2013-01-06 18:06:00,70.0,51.0,26.99,SE,137,10.1,10.1,51,0.00,,---,0.00,VWS V14.01,2013-01-07 00:06:00,
2013-01-06 18:11:00,70.0,51.0,26.99,East,100,8.1,8.1,51,0.00,,---,0.00,VWS V14.01,2013-01-07 00:11:00,
2013-01-06 18:16:00,70.0,51.0,26.99,SE,142,8.1,8.1,51,0.00,,---,0.00,VWS V14.01,2013-01-07 00:16:00,
2013-01-06 18:21:00,70.0,51.0,26.99,SE,142,8.1,8.1,51,0.00,,---,0.00,VWS V14.01,2013-01-07 00:21:00,
2013-01-06 18:26:00,70.0,51.0,26.99,SE,142,8.1,8.1,51,0.00,,---,0.00,VWS V14.01,2013-01-07 00:26:00,
2013-01-06 18:31:00,70.0,51.0,26.99,SE,133,6.3,6.3,51,0.00,,---,0.00,VWS V14.01,2013-01-07 00:31:00,
2013-01-06 18:36:00,70.0,51.0,26.99,SE,133,6.3,6.3,51,0.00,,---,0.00,VWS V14.01,2013-01-07 00:36:00,
2013-01-06 18:41:00,70.0,51.0,26.99,SE,132,8.3,8.3,51,0.00,,---,0.00,VWS V14.01,2013-01-07 00:41:00,
2013-01-06 18:46:00,70.0,51.0,26.99,SE,132,8.3,8.3,51,0.00,,---,0.00,VWS V14.01,2013-01-07 00:46:00,
2013-01-06 18:51:00,70.0,51.0,26.99,SE,132,8.3,8.3,51,0.00,,---,0.00,VWS V14.01,2013-01-07 00:51:00,
2013-01-06 18:56:00,70.0,51.0,27.02,SE,132,8.3,8.3,51,0.00,,---,0.00,VWS V14.01,2013-01-07 00:56:00,
2013-01-06 19:01:00,70.0,51.0,27.02,SE,132,8.3,8.3,51,0.00,,---,0.00,VWS V14.01,2013-01-07 01:01:00,
2013-01-06 19:06:00,70.0,51.0,27.02,SE,132,8.3,8.3,51,0.00,,---,0.00,VWS V14.01,2013-01-07 01:06:00,
2013-01-06 19:11:00,70.0,51.0,27.02,SE,132,8.3,8.3,51,0.00,,---,0.00,VWS V14.01,2013-01-07 01:11:00,
2013-01-06 19:16:00,70.0,51.0,27.02,SE,132,8.3,8.3,51,0.00,,---,0.00,VWS V14.01,2013-01-07 01:16:00,
2013-01-06 19:21:00,70.0,51.0,27.02,SE,132,8.3,8.3,51,0.00,,---,0.00,VWS V14.01,2013-01-07 01:21:00,
2013-01-06 19:26:00,70.0,51.0,27.02,SE,129,4.0,5.4,51,0.00,,---,0.00,VWS V14.01,2013-01-07 01:26:00,
2013-01-06 19:32:00,70.0,51.0,27.02,ESE,118,5.8,5.8,51,0.00,,---,0.00,VWS V14.01,2013-01-07 01:32:00,
2013-01-06 19:37:00,70.0,51.0,27.02,SSE,154,5.4,5.4,51,0.00,,---,0.00,VWS V14.01,2013-01-07 01:37:00,
2013-01-06 19:42:00,70.0,51.0,27.02,SE,127,4.0,4.0,51,0.00,,---,0.00,VWS V14.01,2013-01-07 01:42:00,
2013-01-06 19:47:00,70.0,51.0,27.02,SE,136,4.0,4.0,51,0.00,,---,0.00,VWS V14.01,2013-01-07 01:47:00,
2013-01-06 19:52:00,70.0,51.0,27.02,SE,144,3.6,3.6,51,0.00,,---,0.00,VWS V14.01,2013-01-07 01:52:00,
2013-01-06 19:57:00,70.0,51.0,27.02,SE,145,8.7,8.7,51,0.00,,---,0.00,VWS V14.01,2013-01-07 01:57:00,
2013-01-06 20:02:00,70.0,51.0,27.02,ESE,119,4.0,4.0,51,0.00,,---,0.00,VWS V14.01,2013-01-07 02:02:00,
2013-01-06 20:07:00,70.0,51.0,27.02,ESE,119,4.0,4.0,51,0.00,,---,0.00,VWS V14.01,2013-01-07 02:07:00,
2013-01-06 20:12:00,70.0,51.0,27.02,ESE,119,4.0,4.0,51,0.00,,---,0.00,VWS V14.01,2013-01-07 02:12:00,
2013-01-06 20:17:00,70.0,51.0,27.02,SE,136,5.8,5.8,51,0.00,,---,0.00,VWS V14.01,2013-01-07 02:17:00,
2013-01-06 20:22:00,70.0,51.0,27.02,ESE,114,5.4,5.4,51,0.00,,---,0.00,VWS V14.01,2013-01-07 02:22:00,
2013-01-06 20:27:00,70.0,51.0,27.02,ESE,114,5.4,5.4,51,0.00,,---,0.00,VWS V14.01,2013-01-07 02:27:00,
2013-01-06 20:32:00,70.0,51.0,27.02,ENE,76,10.1,10.1,51,0.00,,---,0.00,VWS V14.01,2013-01-07 02:32:00,
2013-01-06 20:37:00,70.0,51.0,27.02,SE,143,3.6,3.6,51,0.00,,---,0.00,VWS V14.01,2013-01-07 02:37:00,
2013-01-06 20:42:00,70.0,51.0,27.02,SE,143,7.2,7.2,51,0.00,,---,0.00,VWS V14.01,2013-01-07 02:42:00,
2013-01-06 20:47:00,70.0,51.0,27.02,SE,143,7.2,7.2,51,0.00,,---,0.00,VWS V14.01,2013-01-07 02:47:00,
2013-01-06 20:52:00,70.0,51.0,27.02,ESE,110,6.3,6.3,51,0.00,,---,0.00,VWS V14.01,2013-01-07 02:52:00,
2013-01-06 20:57:00,70.0,51.0,27.02,ESE,111,5.4,5.4,51,0.00,,---,0.00,VWS V14.01,2013-01-07 02:57:00,
2013-01-06 21:02:00,70.0,51.0,27.02,ESE,111,5.4,5.4,51,0.00,,---,0.00,VWS V14.01,2013-01-07 03:02:00,
2013-01-06 21:07:00,70.0,51.0,27.02,SE,125,10.5,10.5,51,0.00,,---,0.00,VWS V14.01,2013-01-07 03:07:00,
2013-01-06 21:12:00,70.0,51.0,27.05,SSE,147,8.3,8.3,51,0.00,,---,0.00,VWS V14.01,2013-01-07 03:12:00,
2013-01-06 21:17:00,70.0,51.0,27.05,East,95,7.6,11.0,51,0.00,,---,0.00,VWS V14.01,2013-01-07 03:17:00,
2013-01-06 21:22:00,70.0,51.0,27.05,SSE,159,7.6,7.6,51,0.00,,---,0.00,VWS V14.01,2013-01-07 03:22:00,
2013-01-06 21:27:00,70.0,51.0,27.02,East,96,8.1,8.1,51,0.00,,---,0.00,VWS V14.01,2013-01-07 03:27:00,
2013-01-06 21:32:00,70.0,51.0,27.02,East,96,8.1,8.1,51,0.00,,---,0.00,VWS V14.01,2013-01-07 03:32:00,
2013-01-06 21:37:00,70.0,51.0,27.02,SE,132,4.9,4.9,51,0.00,,---,0.00,VWS V14.01,2013-01-07 03:37:00,
2013-01-06 21:42:00,70.0,51.0,27.05,SE,128,8.7,8.7,51,0.00,,---,0.00,VWS V14.01,2013-01-07 03:42:00,
2013-01-06 21:47:00,70.0,51.0,27.05,SSE,149,5.4,6.3,51,0.00,,---,0.00,VWS V14.01,2013-01-07 03:47:00,
2013-01-06 21:52:00,70.0,51.0,27.05,SSE,155,8.1,8.1,51,0.00,,---,0.00,VWS V14.01,2013-01-07 03:52:00,
2013-01-06 21:57:00,70.0,51.0,27.02,SSE,152,6.3,6.3,51,0.00,,---,0.00,VWS V14.01,2013-01-07 03:57:00,
2013-01-06 22:02:00,70.0,51.0,27.02,SSE,152,6.3,6.3,51,0.00,,---,0.00,VWS V14.01,2013-01-07 04:02:00,
2013-01-06 22:07:00,70.0,51.0,27.02,SSE,148,5.8,5.8,51,0.00,,---,0.00,VWS V14.01,2013-01-07 04:07:00,
2013-01-06 22:12:00,70.0,51.0,27.02,East,87,8.1,11.0,51,0.00,,---,0.00,VWS V14.01,2013-01-07 04:12:00,
2013-01-06 22:17:00,70.0,51.0,27.02,ESE,117,11.0,11.0,51,0.00,,---,0.00,VWS V14.01,2013-01-07 04:17:00,
2013-01-06 22:22:00,70.0,51.0,27.02,SE,130,8.7,11.0,51,0.00,,---,0.00,VWS V14.01,2013-01-07 04:22:00,
2013-01-06 22:27:00,70.0,51.0,27.02,East,90,7.6,7.6,51,0.00,,---,0.00,VWS V14.01,2013-01-07 04:27:00,
2013-01-06 22:32:00,70.0,51.0,27.02,East,87,8.1,13.2,51,0.00,,---,0.00,VWS V14.01,2013-01-07 04:32:00,
2013-01-06 22:37:00,70.0,51.0,27.02,ESE,115,10.5,10.5,51,0.00,,---,0.00,VWS V14.01,2013-01-07 04:37:00,
2013-01-06 22:42:00,70.0,51.0,27.02,East,101,5.8,6.3,51,0.00,,---,0.00,VWS V14.01,2013-01-07 04:42:00,
2013-01-06 22:47:00,70.0,51.0,27.02,ESE,110,5.4,5.4,51,0.00,,---,0.00,VWS V14.01,2013-01-07 04:47:00,
2013-01-06 22:52:00,70.0,51.0,27.02,ENE,57,8.1,8.1,51,0.00,,---,0.00,VWS V14.01,2013-01-07 04:52:00,
2013-01-06 22:57:00,70.0,51.0,27.02,NNE,31,10.1,11.4,51,0.00,,---,0.00,VWS V14.01,2013-01-07 04:57:00,
2013-01-06 23:00:00,70.0,51.0,27.02,SSE,150,11.9,11.9,51,0.00,,---,0.00,VWS V14.01,2013-01-07 05:00:00,
2013-01-06 23:05:00,70.0,51.0,27.02,ESE,112,5.4,5.4,51,0.00,,---,0.00,VWS V14.01,2013-01-07 05:05:00,
2013-01-06 23:10:00,70.0,51.0,27.02,SE,138,7.6,8.3,51,0.00,,---,0.00,VWS V14.01,2013-01-07 05:10:00,
2013-01-06 23:15:00,70.0,51.0,27.02,SE,131,6.3,11.0,51,0.00,,---,0.00,VWS V14.01,2013-01-07 05:15:00,
2013-01-06 23:20:00,70.0,51.0,27.02,ENE,78,5.8,10.5,51,0.00,,---,0.00,VWS V14.01,2013-01-07 05:20:00,
2013-01-06 23:25:00,70.0,51.0,27.02,East,91,4.5,13.2,51,0.00,,---,0.00,VWS V14.01,2013-01-07 05:25:00,
2013-01-06 23:30:00,70.0,51.0,27.02,SE,129,5.4,8.1,51,0.00,,---,0.00,VWS V14.01,2013-01-07 05:30:00,
2013-01-06 23:35:00,70.0,51.0,27.02,ESE,113,8.3,8.3,51,0.00,,---,0.00,VWS V14.01,2013-01-07 05:35:00,
2013-01-06 23:40:00,70.0,51.0,27.02,South,170,15.0,15.0,51,0.00,,---,0.00,VWS V14.01,2013-01-07 05:40:00,
2013-01-06 23:45:00,70.0,51.0,27.02,East,86,4.0,6.3,51,0.00,,---,0.00,VWS V14.01,2013-01-07 05:45:00,
2013-01-06 23:50:00,70.0,51.0,27.02,ESE,123,8.1,8.1,51,0.00,,---,0.00,VWS V14.01,2013-01-07 05:50:00,
2013-01-06 23:55:00,70.0,51.0,26.99,SE,124,7.6,7.6,51,0.00,,---,0.00,VWS V14.01,2013-01-07 05:55:00,